Munson Island, Florida
Current Conditions -  °F | °C
As of 2:53 PM on Thursday 29 Jan 2015 (Local Time) from KNQX Reporting Station
Few Clouds Few Clouds  
Wind Chill: 73°   Ceiling: Unl
Heat Index: 73°   Visibility: 10mi
Dew Point: 54°   Wind: 18mph
Humidity: 51%   Direction: 80°E
Pressure: 30.17"   Gusts: NA
Location:  24.5796°N, 81.6849°W
Report Text: KNQX 291953Z 08016KT 10SM FEW050 23/12 A3017 RMK AO2 SLP214 T02280122 $
Loading
Personal Weather Stations






























Interactive Weather Map New forecast layout! Learn more

10-Day Weather Forecast

Advertisements
Track Severe Weather on mobile